Blachly, Oregon
Current Conditions -  °F | °C
As of 12:54 AM on Thursday 27 Nov 2014 (Local Time) from KEUG Reporting Station
Overcast Overcast  
Wind Chill: 53°   Ceiling: 10000
Heat Index: 53°   Visibility: 10mi
Dew Point: 49°   Wind: 6mph
Humidity: 86%   Direction: 190°S
Pressure: 30.03"   Gusts: NA
Location:  44.19°N, 123.53°W
Report Text: KEUG 270854Z AUTO 19005KT 10SM OVC100 12/09 A3003 RMK AO2 SLP167 T01170094 58008
Loading
Personal Weather Stations






























Interactive Weather Map New forecast layout! Learn more

10-Day Weather Forecast

Advertisements
Track Severe Weather on mobile